Time;durP1;ratioP1;P1;durP2;ratioP2;P2;SDS_P1;SDS_P2;PMS_P1;PMS_P2;Temp;Humidity;BMP_temperature;BMP_pressure;BME280_temperature;BME280_humidity;BME280_pressure;Samples;Min_cycle;Max_cycle;Signal;HPM_P1;HPM_P2
2022/08/27 00:01:36;;;;;;;25.73;14.33;;;21.60;1.00;;;;;;5114337;28;20406;-75
2022/08/27 00:04:02;;;;;;;25.93;13.70;;;21.60;1.00;;;;;;5114359;28;20302;-71
2022/08/27 00:06:28;;;;;;;28.77;14.87;;;21.60;1.00;;;;;;5112931;28;20398;-72
2022/08/27 00:08:54;;;;;;;25.73;13.53;;;21.70;1.00;;;;;;5114054;28;20422;-71
2022/08/27 00:11:24;;;;;;;17.83;13.80;;;21.70;1.00;;;;;;5114264;28;20281;-76
2022/08/27 00:13:50;;;;;;;17.60;13.50;;;21.60;1.00;;;;;;5114166;28;20399;-70
2022/08/27 00:16:16;;;;;;;26.67;15.73;;;21.60;1.00;;;;;;5113067;28;20740;-75
2022/08/27 00:18:44;;;;;;;19.73;13.70;;;21.60;1.00;;;;;;5114225;28;20427;-76
2022/08/27 00:21:10;;;;;;;17.37;13.70;;;21.50;1.00;;;;;;5114041;28;20747;-72
2022/08/27 00:23:37;;;;;;;19.10;14.43;;;21.50;1.00;;;;;;5095166;28;20407;-76
2022/08/27 00:26:04;;;;;;;23.00;13.90;;;21.40;1.00;;;;;;5094815;28;20446;-71
2022/08/27 00:28:31;;;;;;;19.90;14.40;;;21.40;1.00;;;;;;5113780;28;20434;-71
2022/08/27 00:30:57;;;;;;;22.43;14.40;;;21.40;1.00;;;;;;5113855;28;20403;-76
2022/08/27 00:33:24;;;;;;;25.63;14.70;;;21.30;1.00;;;;;;5095715;28;20426;-73
2022/08/27 00:35:53;;;;;;;25.43;14.90;;;21.30;1.00;;;;;;5113677;28;20466;-76
2022/08/27 00:38:21;;;;;;;24.00;14.97;;;21.30;1.00;;;;;;5113023;28;20429;-72
2022/08/27 00:40:48;;;;;;;29.03;14.93;;;21.30;1.00;;;;;;5113205;28;20397;-71
2022/08/27 00:47:04;;;;;;;31.10;15.27;;;21.30;1.00;;;;;;4990770;28;20539;-71
2022/08/27 00:49:44;;;;;;;24.87;15.20;;;21.30;1.00;;;;;;4991677;28;20498;-71
2022/08/27 00:52:17;;;;;;;28.20;14.50;;;21.20;1.00;;;;;;4991753;28;20412;-76
2022/08/27 00:54:43;;;;;;;29.73;15.40;;;21.20;1.00;;;;;;4991726;28;20416;-71
2022/08/27 00:57:10;;;;;;;30.87;14.57;;;21.20;1.00;;;;;;4999690;28;20437;-76
2022/08/27 00:59:36;;;;;;;28.30;16.70;;;21.20;1.00;;;;;;5112719;28;20421;-74
2022/08/27 01:02:20;;;;;;;24.97;13.97;;;21.30;1.00;;;;;;5113621;28;20426;-76
2022/08/27 01:05:01;;;;;;;23.90;14.07;;;21.30;1.00;;;;;;5113509;28;20532;-71
2022/08/27 01:07:40;;;;;;;;;;;;;;;;;;;;;
2022/08/27 01:10:11;;;;;;;23.67;13.70;;;21.20;1.00;;;;;;5113358;28;20410;-76
2022/08/27 01:12:38;;;;;;;29.93;15.20;;;21.20;1.00;;;;;;5113328;28;20461;-70
2022/08/27 01:15:08;;;;;;;26.70;14.37;;;21.20;1.00;;;;;;5094833;28;20449;-71
2022/08/27 01:17:37;;;;;;;25.63;15.13;;;21.20;1.00;;;;;;5093743;28;20430;-72
2022/08/27 01:20:08;;;;;;;29.17;14.63;;;21.20;1.00;;;;;;5113254;28;20465;-71
2022/08/27 01:22:58;;;;;;;20.50;13.90;;;21.20;1.00;;;;;;5113267;28;20767;-76
2022/08/27 01:25:25;;;;;;;28.10;15.13;;;21.10;1.00;;;;;;5113182;28;20450;-72
2022/08/27 01:27:56;;;;;;;24.77;14.60;;;21.10;1.00;;;;;;5112173;28;21198;-72
2022/08/27 01:30:22;;;;;;;26.30;15.00;;;21.00;1.00;;;;;;5112989;28;20505;-71
2022/08/27 01:32:49;;;;;;;31.73;15.93;;;21.00;1.00;;;;;;5094386;28;20421;-77
2022/08/27 01:35:16;;;;;;;30.73;13.00;;;21.00;1.00;;;;;;5113174;28;20442;-76
2022/08/27 01:37:53;;;;;;;31.47;14.00;;;21.00;1.00;;;;;;5112286;28;20465;-76
2022/08/27 01:40:22;;;;;;;26.20;14.10;;;20.90;1.00;;;;;;5113088;28;20399;-71
2022/08/27 01:42:52;;;;;;;28.77;15.00;;;20.90;1.00;;;;;;5113181;28;20413;-75
2022/08/27 01:45:25;;;;;;;32.13;15.03;;;21.00;1.00;;;;;;5113066;28;20545;-71
2022/08/27 01:47:54;;;;;;;26.50;14.73;;;21.00;1.00;;;;;;5111951;28;20422;-76
2022/08/27 01:50:23;;;;;;;24.83;14.57;;;21.00;1.00;;;;;;5112769;28;20399;-72
2022/08/27 01:52:50;;;;;;;30.50;14.77;;;21.00;1.00;;;;;;5112866;28;20444;-76
2022/08/27 01:55:19;;;;;;;28.17;14.50;;;20.90;1.00;;;;;;5113066;28;20421;-76
2022/08/27 01:57:47;;;;;;;25.37;13.67;;;20.90;1.00;;;;;;5112010;28;20441;-71
2022/08/27 02:00:18;;;;;;;32.77;15.03;;;20.90;1.00;;;;;;5112908;28;20403;-75
2022/08/27 02:02:44;;;;;;;26.87;14.30;;;20.90;1.00;;;;;;5113052;28;20399;-71
2022/08/27 02:05:11;;;;;;;27.67;14.17;;;20.80;1.00;;;;;;5112895;28;20525;-71
2022/08/27 02:07:37;;;;;;;34.90;16.53;;;20.80;1.00;;;;;;5111919;28;20783;-75
2022/08/27 02:10:05;;;;;;;29.13;15.33;;;20.80;1.00;;;;;;5112550;28;20406;-73
2022/08/27 02:12:31;;;;;;;35.77;16.93;;;20.80;1.00;;;;;;5112499;28;20422;-76
2022/08/27 02:14:57;;;;;;;30.00;16.17;;;20.70;1.00;;;;;;5112335;28;20414;-70
2022/08/27 02:17:23;;;;;;;31.50;16.20;;;20.70;1.00;;;;;;5115642;28;20802;-70
2022/08/27 02:19:49;;;;;;;23.50;14.20;;;20.70;1.00;;;;;;5116455;28;20173;-76
2022/08/27 02:22:15;;;;;;;28.40;14.53;;;20.70;1.00;;;;;;5116119;28;20191;-72
2022/08/27 02:24:41;;;;;;;32.83;15.23;;;20.70;1.00;;;;;;5116271;28;20450;-71
2022/08/27 02:27:08;;;;;;;33.40;17.60;;;20.70;1.00;;;;;;5115458;28;20502;-71
2022/08/27 02:29:34;;;;;;;25.23;15.70;;;20.70;1.00;;;;;;5115900;28;20442;-71
2022/08/27 02:32:00;;;;;;;31.70;14.77;;;20.70;1.00;;;;;;5115747;28;20460;-76
2022/08/27 02:34:27;;;;;;;24.20;15.80;;;20.60;1.00;;;;;;5116098;28;20419;-76
2022/08/27 02:36:53;;;;;;;23.73;13.60;;;20.60;1.00;;;;;;5115199;28;20538;-75
2022/08/27 02:39:19;;;;;;;30.57;15.63;;;20.50;1.00;;;;;;5116056;28;20430;-76
2022/08/27 02:41:47;;;;;;;26.00;14.47;;;20.50;1.00;;;;;;5116050;28;20173;-76
2022/08/27 02:44:13;;;;;;;27.23;15.00;;;20.40;1.00;;;;;;5097634;28;20410;-74
2022/08/27 02:46:39;;;;;;;33.77;18.30;;;20.40;1.00;;;;;;5114421;28;20407;-76
2022/08/27 02:49:06;;;;;;;25.10;14.83;;;20.40;1.00;;;;;;5115729;28;20430;-76
2022/08/27 02:51:32;;;;;;;27.73;15.47;;;20.30;1.00;;;;;;5115894;28;20891;-71
2022/08/27 02:53:59;;;;;;;29.27;14.43;;;20.30;1.00;;;;;;5115726;28;20764;-76
2022/08/27 02:56:28;;;;;;;29.17;14.10;;;20.30;1.00;;;;;;5114800;28;20403;-71
2022/08/27 02:58:54;;;;;;;22.03;13.03;;;20.30;1.00;;;;;;5115600;28;20469;-75
2022/08/27 03:02:18;;;;;;;26.57;15.77;;;20.30;1.00;;;;;;5115696;28;20411;-76
2022/08/27 03:07:40;;;;;;;38.00;17.17;;;20.10;1.00;;;;;;5113914;28;21040;-72
2022/08/27 03:10:08;;;;;;;30.50;15.90;;;20.10;1.00;;;;;;5115557;28;20964;-76
2022/08/27 03:12:36;;;;;;;26.57;14.47;;;20.20;1.00;;;;;;5115419;28;20755;-76
2022/08/27 03:15:04;;;;;;;27.80;14.20;;;20.20;1.00;;;;;;5115258;28;20409;-76
2022/08/27 03:20:14;;;;;;;23.90;14.03;;;20.20;1.00;;;;;;5115292;28;20460;-73
2022/08/27 03:22:42;;;;;;;28.07;14.13;;;20.10;1.00;;;;;;5115108;28;20449;-71
2022/08/27 03:25:12;;;;;;;21.47;13.80;;;20.20;1.00;;;;;;5095917;28;20715;-76
2022/08/27 03:27:38;;;;;;;24.20;13.97;;;20.20;1.00;;;;;;5113057;28;20429;-71
2022/08/27 03:30:07;;;;;;;29.87;14.40;;;20.20;1.00;;;;;;5115198;28;20472;-71
2022/08/27 03:32:34;;;;;;;23.63;13.50;;;20.10;1.00;;;;;;5115065;28;20395;-76
2022/08/27 03:35:03;;;;;;;24.23;14.60;;;20.00;1.00;;;;;;5114930;28;20418;-71
2022/08/27 03:37:29;;;;;;;22.70;13.63;;;20.00;1.00;;;;;;5114095;28;20409;-71
2022/08/27 03:39:55;;;;;;;23.07;13.87;;;20.00;1.00;;;;;;5096631;28;20407;-76
2022/08/27 03:42:22;;;;;;;23.23;13.27;;;20.00;1.00;;;;;;5114862;28;20452;-76
2022/08/27 03:44:48;;;;;;;20.33;12.70;;;20.00;1.00;;;;;;5114507;28;20443;-76
2022/08/27 03:47:17;;;;;;;28.00;15.00;;;20.00;1.00;;;;;;5113726;28;20395;-71
2022/08/27 03:49:43;;;;;;;22.10;12.80;;;20.00;1.00;;;;;;5114749;28;20434;-72
2022/08/27 03:52:10;;;;;;;30.07;14.60;;;19.90;1.00;;;;;;5114778;28;20808;-71
2022/08/27 03:57:55;;;;;;;21.83;13.80;;;20.00;1.00;;;;;;5113519;28;20413;-72
2022/08/27 04:00:23;;;;;;;27.10;13.57;;;20.00;1.00;;;;;;5114463;28;20859;-71
2022/08/27 04:02:49;;;;;;;19.60;13.17;;;20.00;1.00;;;;;;5113973;28;20410;-75
2022/08/27 04:05:15;;;;;;;25.23;13.20;;;19.90;1.00;;;;;;5095720;28;20469;-76
2022/08/27 04:07:42;;;;;;;19.53;13.03;;;19.90;1.00;;;;;;5113375;28;20476;-71
2022/08/27 04:10:10;;;;;;;22.50;13.27;;;19.80;1.00;;;;;;5114472;28;20431;-71
2022/08/27 04:12:37;;;;;;;24.33;11.67;;;19.80;1.00;;;;;;5114281;28;20391;-76
2022/08/27 04:15:04;;;;;;;28.40;11.97;;;19.80;1.00;;;;;;5114099;28;20448;-76
2022/08/27 04:17:30;;;;;;;20.97;12.43;;;19.80;1.00;;;;;;5113170;28;20763;-71
2022/08/27 04:19:58;;;;;;;26.70;14.00;;;19.90;1.00;;;;;;5113377;28;20406;-71
2022/08/27 04:22:27;;;;;;;22.03;13.00;;;19.90;1.00;;;;;;5114083;28;20405;-72
2022/08/27 04:24:54;;;;;;;24.77;13.47;;;19.90;1.00;;;;;;5095957;28;20485;-76
2022/08/27 04:27:20;;;;;;;23.20;12.27;;;19.90;1.00;;;;;;5113151;28;20440;-76
2022/08/27 04:29:47;;;;;;;20.87;12.80;;;19.90;1.00;;;;;;5095635;28;20426;-71
2022/08/27 04:32:13;;;;;;;20.30;11.10;;;19.90;1.00;;;;;;5114030;28;20406;-75
2022/08/27 04:34:42;;;;;;;23.47;11.70;;;19.90;1.00;;;;;;5113972;28;20481;-76
2022/08/27 04:37:08;;;;;;;25.03;10.77;;;19.80;1.00;;;;;;5112049;28;20407;-76
2022/08/27 04:39:36;;;;;;;25.47;12.83;;;19.80;1.00;;;;;;5095396;28;20434;-71
2022/08/27 04:42:02;;;;;;;22.47;11.90;;;19.80;1.00;;;;;;5113803;28;20407;-71
2022/08/27 04:44:35;;;;;;;15.60;12.20;;;19.80;1.00;;;;;;5113655;28;20792;-71
2022/08/27 04:47:12;;;;;;;18.53;9.70;;;19.80;1.00;;;;;;5112825;28;20744;-71
2022/08/27 04:49:38;;;;;;;19.20;10.43;;;19.80;1.00;;;;;;5113483;28;20418;-71
2022/08/27 04:52:05;;;;;;;11.23;8.97;;;19.80;1.00;;;;;;5113799;28;20390;-76
2022/08/27 04:54:32;;;;;;;14.23;9.37;;;19.70;1.00;;;;;;5112951;28;20427;-76
2022/08/27 04:56:57;;;;;;;14.07;8.87;;;19.60;1.00;;;;;;5112752;28;20459;-75
2022/08/27 04:59:23;;;;;;;16.10;11.17;;;19.60;1.00;;;;;;5113548;28;20454;-76
2022/08/27 05:01:49;;;;;;;15.43;8.70;;;19.50;1.00;;;;;;5113464;28;20214;-76
2022/08/27 05:04:29;;;;;;;;;;;;;;;;;;;;;
2022/08/27 05:06:56;;;;;;;15.80;9.33;;;19.50;1.00;;;;;;5112676;28;20778;-74
2022/08/27 05:09:26;;;;;;;20.17;9.30;;;19.50;1.00;;;;;;5113553;28;20450;-71
2022/08/27 05:11:54;;;;;;;16.90;8.67;;;19.50;1.00;;;;;;5113348;28;20410;-71
2022/08/27 05:14:22;;;;;;;17.13;9.50;;;19.50;1.00;;;;;;5112824;28;20794;-71
2022/08/27 05:16:48;;;;;;;11.20;7.87;;;19.50;1.00;;;;;;5112637;28;20399;-71
2022/08/27 05:19:14;;;;;;;19.10;8.50;;;19.50;1.00;;;;;;5113291;28;20517;-75
2022/08/27 05:22:26;;;;;;;;;;;;;;;;;;;;;
2022/08/27 05:25:05;;;;;;;12.50;7.80;;;19.60;1.00;;;;;;5010602;28;20210;-71
2022/08/27 05:27:31;;;;;;;11.67;8.03;;;19.50;1.00;;;;;;5010209;28;20419;-76
2022/08/27 05:30:17;;;;;;;8.40;6.00;;;19.50;1.00;;;;;;5071099;28;20962;-71
2022/08/27 05:32:43;;;;;;;11.10;6.77;;;19.50;1.00;;;;;;5112408;28;20839;-71
2022/08/27 05:35:10;;;;;;;8.27;6.43;;;19.40;1.00;;;;;;5094849;28;20780;-76
2022/08/27 05:37:36;;;;;;;9.20;7.47;;;19.40;1.00;;;;;;5112127;28;20422;-76
2022/08/27 05:40:23;;;;;;;10.90;7.13;;;19.40;1.00;;;;;;5094823;28;20421;-75
2022/08/27 05:43:12;;;;;;;9.40;6.90;;;19.50;1.00;;;;;;5113089;28;20402;-76
2022/08/27 05:45:46;;;;;;;9.13;6.17;;;19.40;1.00;;;;;;5094229;28;20458;-76
2022/08/27 05:48:25;;;;;;;8.50;6.57;;;19.40;1.00;;;;;;5111602;28;21029;-76
2022/08/27 05:50:50;;;;;;;14.93;6.93;;;19.50;1.00;;;;;;5115790;28;20957;-75
2022/08/27 05:53:17;;;;;;;9.57;5.90;;;19.50;1.00;;;;;;5116990;28;20395;-75
2022/08/27 05:55:44;;;;;;;15.47;6.57;;;19.40;1.00;;;;;;5098692;28;20579;-76
2022/08/27 06:01:03;;;;;;;9.07;7.00;;;19.40;1.00;;;;;;5116858;28;20502;-75
2022/08/27 06:04:16;;;;;;;7.30;5.90;;;19.30;1.00;;;;;;5098548;28;20402;-70
2022/08/27 06:13:44;;;;;;;9.00;5.60;;;19.20;99.90;;;;;;5014823;28;20379;-76
2022/08/27 06:16:13;;;;;;;11.77;5.67;;;19.20;99.90;;;;;;4996675;28;20406;-76
2022/08/27 06:18:59;;;;;;;;;;;;;;;;;;;;;
2022/08/27 06:21:43;;;;;;;10.43;5.90;;;19.20;99.90;;;;;;5013909;28;20410;-76
2022/08/27 06:24:13;;;;;;;9.57;6.13;;;19.10;99.90;;;;;;5013196;28;20419;-71
2022/08/27 06:26:41;;;;;;;9.20;5.70;;;19.10;99.90;;;;;;5041796;27;20418;-71
2022/08/27 06:29:08;;;;;;;12.20;6.40;;;19.10;99.90;;;;;;5098041;28;20939;-77
2022/08/27 06:31:34;;;;;;;6.27;5.77;;;19.20;99.90;;;;;;5116335;28;20417;-72
2022/08/27 06:34:16;;;;;;;11.13;5.47;;;19.20;99.90;;;;;;5114918;28;20418;-71
2022/08/27 06:36:44;;;;;;;10.63;7.43;;;19.20;99.90;;;;;;5097112;28;20523;-76
2022/08/27 06:39:14;;;;;;;11.90;6.17;;;19.20;99.90;;;;;;5116309;28;20866;-76
2022/08/27 06:41:41;;;;;;;12.47;6.37;;;19.30;99.90;;;;;;5097171;28;20406;-76
2022/08/27 06:44:08;;;;;;;8.30;5.50;;;19.30;99.90;;;;;;5097777;28;20468;-71
2022/08/27 06:46:38;;;;;;;9.27;6.33;;;19.30;99.90;;;;;;5096696;28;20458;-76
2022/08/27 06:49:13;;;;;;;10.83;5.93;;;19.30;99.90;;;;;;5097407;28;20459;-74
2022/08/27 06:51:44;;;;;;;9.83;5.37;;;19.30;99.90;;;;;;5097603;28;20449;-76
2022/08/27 06:54:13;;;;;;;15.13;7.80;;;19.30;99.90;;;;;;5115981;28;20910;-75
2022/08/27 07:10:10;;;;;;;9.50;5.10;;;19.10;99.90;;;;;;5115394;27;20417;-76
2022/08/27 07:20:22;;;;;;;6.40;4.80;;;19.20;99.90;;;;;;5056322;28;20430;-75
2022/08/27 07:33:12;;;;;;;7.53;4.03;;;19.20;99.90;;;;;;5051377;28;20424;-76
2022/08/27 07:35:41;;;;;;;8.00;5.37;;;19.20;99.90;;;;;;5035838;28;20436;-74
2022/08/27 07:38:10;;;;;;;5.20;4.70;;;19.30;99.90;;;;;;5108592;28;20442;-77
2022/08/27 07:40:36;;;;;;;6.40;4.23;;;19.30;99.90;;;;;;5114814;28;20399;-77
2022/08/27 07:46:45;;;;;;;7.57;4.53;;;19.30;99.90;;;;;;5114708;28;20449;-77
2022/08/27 07:49:17;;;;;;;8.03;3.40;;;19.30;99.90;;;;;;5067321;28;20484;-74
2022/08/27 07:51:44;;;;;;;5.53;3.67;;;19.30;99.90;;;;;;5114043;28;20445;-77
2022/08/27 07:54:11;;;;;;;9.13;4.33;;;19.40;99.90;;;;;;5114672;28;20494;-77
2022/08/27 07:56:39;;;;;;;9.20;4.03;;;19.40;99.90;;;;;;5114023;28;20410;-77
2022/08/27 07:59:05;;;;;;;5.73;4.23;;;19.40;99.90;;;;;;5114339;28;20506;-73
2022/08/27 08:02:18;;;;;;;;;;;;;;;;;;;;;
2022/08/27 08:04:45;;;;;;;7.70;4.00;;;19.40;99.90;;;;;;5114008;28;20454;-73
2022/08/27 08:07:11;;;;;;;10.10;4.53;;;19.40;99.90;;;;;;5095150;28;20497;-74
2022/08/27 08:09:45;;;;;;;7.60;3.80;;;19.40;99.90;;;;;;5113666;28;20498;-78
2022/08/27 08:12:11;;;;;;;12.00;4.90;;;19.50;99.90;;;;;;5095453;28;20414;-77
2022/08/27 08:14:37;;;;;;;5.93;3.83;;;19.50;99.90;;;;;;5095948;28;20418;-73
2022/08/27 08:17:06;;;;;;;7.23;3.33;;;19.60;99.90;;;;;;5113323;28;20173;-77
2022/08/27 08:20:02;;;;;;;5.73;4.33;;;19.70;99.90;;;;;;5095862;28;20207;-76
2022/08/27 08:22:41;;;;;;;5.03;3.20;;;19.70;99.90;;;;;;5113680;28;20493;-78
2022/08/27 08:25:07;;;;;;;11.07;3.47;;;19.80;99.90;;;;;;5113909;28;20772;-74
2022/08/27 08:27:34;;;;;;;9.80;4.07;;;19.90;99.90;;;;;;5112797;28;20760;-73
2022/08/27 08:30:00;;;;;;;8.03;3.97;;;19.90;99.90;;;;;;5113868;28;20763;-73
2022/08/27 08:32:26;;;;;;;5.40;3.90;;;19.80;99.90;;;;;;5113932;28;20402;-74
2022/08/27 08:34:52;;;;;;;4.87;3.20;;;20.00;99.90;;;;;;5095722;28;20437;-74
2022/08/27 08:37:18;;;;;;;6.20;3.80;;;20.00;99.90;;;;;;5095118;28;20411;-77
2022/08/27 08:39:44;;;;;;;8.10;4.00;;;20.10;99.90;;;;;;5095773;28;20177;-74
2022/08/27 08:42:31;;;;;;;8.13;4.03;;;20.10;99.90;;;;;;5095545;28;20407;-77
2022/08/27 08:45:00;;;;;;;6.40;3.60;;;20.20;99.90;;;;;;5095062;28;20196;-73
2022/08/27 08:47:31;;;;;;;7.43;3.80;;;20.30;99.90;;;;;;5094631;28;20406;-74
2022/08/27 08:50:17;;;;;;;4.07;3.63;;;20.40;99.90;;;;;;5113754;28;20405;-77
2022/08/27 08:53:00;;;;;;;11.60;4.33;;;20.40;99.90;;;;;;5095520;28;20419;-73
2022/08/27 08:55:37;;;;;;;7.40;4.83;;;20.40;99.90;;;;;;5095407;28;20414;-73
2022/08/27 08:58:08;;;;;;;7.80;3.40;;;20.40;99.90;;;;;;5094696;28;20438;-77
2022/08/27 09:00:38;;;;;;;4.80;4.30;;;20.40;99.90;;;;;;5113173;28;20418;-75
2022/08/27 09:03:04;;;;;;;6.97;4.50;;;20.40;99.90;;;;;;5113277;28;20407;-73
2022/08/27 09:06:01;;;;;;;7.87;3.23;;;20.40;99.90;;;;;;5113465;28;20547;-77
2022/08/27 09:11:47;;;;;;;4.93;3.43;;;20.30;99.90;;;;;;4991361;28;20498;-77
2022/08/27 09:14:40;;;;;;;9.50;4.10;;;20.20;99.90;;;;;;5091428;28;20425;-75
2022/08/27 09:17:08;;;;;;;5.57;3.53;;;20.10;99.90;;;;;;5094421;28;20421;-73
2022/08/27 09:19:34;;;;;;;6.17;3.40;;;20.00;99.90;;;;;;5112648;28;20434;-74
2022/08/27 09:22:22;;;;;;;6.93;3.60;;;20.00;99.90;;;;;;5113436;28;20445;-73
2022/08/27 09:25:14;;;;;;;;;;;;;;;;;;;;;
2022/08/27 09:27:41;;;;;;;12.17;3.83;;;20.10;99.90;;;;;;5116682;28;20426;-74
2022/08/27 09:30:11;;;;;;;9.80;3.83;;;20.10;99.90;;;;;;5099366;28;20398;-73
2022/08/27 09:32:38;;;;;;;7.70;3.33;;;20.20;99.90;;;;;;5099014;28;20415;-73
2022/08/27 09:35:07;;;;;;;8.00;3.37;;;20.20;99.90;;;;;;5117316;28;20454;-73
2022/08/27 09:37:43;;;;;;;10.40;3.63;;;20.10;99.90;;;;;;5097783;28;20457;-76
2022/08/27 09:40:24;;;;;;;9.97;3.43;;;20.20;99.90;;;;;;5117401;28;20398;-73
2022/08/27 09:42:56;;;;;;;11.20;3.20;;;20.30;99.90;;;;;;5098898;28;20922;-73
2022/08/27 09:45:25;;;;;;;8.07;3.47;;;20.30;99.90;;;;;;5099000;28;20462;-73
2022/08/27 09:47:52;;;;;;;9.10;5.70;;;20.40;99.90;;;;;;5098251;28;20430;-73
2022/08/27 09:50:23;;;;;;;12.13;3.70;;;20.40;99.90;;;;;;5116974;28;20460;-77
2022/08/27 09:52:54;;;;;;;11.37;4.10;;;20.40;99.90;;;;;;5098935;28;20418;-73
2022/08/27 09:55:29;;;;;;;10.10;4.17;;;20.40;99.90;;;;;;5116829;28;20406;-78
2022/08/27 09:57:55;;;;;;;5.43;3.50;;;20.50;99.90;;;;;;5097749;28;20430;-73
2022/08/27 10:00:36;;;;;;;9.23;3.80;;;20.50;99.90;;;;;;5116879;28;20431;-78
2022/08/27 10:03:03;;;;;;;4.20;3.80;;;20.50;99.90;;;;;;5116817;28;20890;-77
2022/08/27 10:05:52;;;;;;;10.20;4.00;;;20.50;99.90;;;;;;5098547;28;20450;-78
2022/08/27 10:08:41;;;;;;;9.67;3.70;;;20.50;99.90;;;;;;5097852;28;20445;-73
2022/08/27 10:11:28;;;;;;;17.43;4.47;;;20.50;99.90;;;;;;5098356;28;20836;-73
2022/08/27 10:14:17;;;;;;;7.97;5.00;;;20.50;99.90;;;;;;5097860;28;20410;-77
2022/08/27 10:16:58;;;;;;;6.33;3.67;;;20.50;99.90;;;;;;5097540;28;20410;-73
2022/08/27 10:19:34;;;;;;;11.63;4.00;;;20.50;99.90;;;;;;5098536;28;20430;-73
2022/08/27 10:22:13;;;;;;;4.10;3.50;;;20.60;99.90;;;;;;5116519;28;20398;-77
2022/08/27 10:25:03;;;;;;;5.83;4.03;;;20.50;99.90;;;;;;5116639;28;20721;-73
2022/08/27 10:27:41;;;;;;;12.43;5.23;;;20.50;98.70;;;;;;5115750;28;20493;-77
2022/08/27 10:30:10;;;;;;;8.17;3.63;;;20.60;99.20;;;;;;5116547;28;20403;-73
2022/08/27 10:33:02;;;;;;;6.40;4.40;;;20.60;99.80;;;;;;5097360;28;20499;-73
2022/08/27 10:35:34;;;;;;;8.07;4.43;;;20.60;99.90;;;;;;5097439;28;20427;-73
2022/08/27 10:38:09;;;;;;;7.90;5.10;;;20.70;99.90;;;;;;5097333;28;20477;-73
2022/08/27 10:40:50;;;;;;;5.43;4.07;;;20.70;98.50;;;;;;5097875;28;20402;-73
2022/08/27 10:43:42;;;;;;;8.60;4.40;;;20.70;96.00;;;;;;5098106;28;20911;-73
2022/08/27 10:46:17;;;;;;;10.03;5.20;;;20.70;96.00;;;;;;5096892;28;20846;-73
2022/08/27 10:48:56;;;;;;;9.50;4.07;;;20.70;95.80;;;;;;5097393;28;20422;-75
2022/08/27 10:51:46;;;;;;;7.80;3.50;;;20.60;96.00;;;;;;5115757;28;20399;-73
2022/08/27 10:54:25;;;;;;;8.40;4.07;;;20.70;96.60;;;;;;5115830;28;20399;-77
2022/08/27 10:57:22;;;;;;;5.90;3.83;;;20.70;96.00;;;;;;5115055;28;20398;-74
2022/08/27 10:59:55;;;;;;;7.20;4.20;;;20.60;93.40;;;;;;5097771;28;20439;-77
2022/08/27 11:02:47;;;;;;;9.47;3.87;;;20.70;92.10;;;;;;5115600;28;21012;-78
2022/08/27 11:05:30;;;;;;;11.03;4.10;;;20.80;81.20;;;;;;5097306;28;20826;-77
2022/08/27 11:08:12;;;;;;;9.27;4.03;;;20.90;67.30;;;;;;5096593;28;20525;-77
2022/08/27 11:10:53;;;;;;;8.77;4.27;;;21.00;73.50;;;;;;5114957;28;20442;-78
2022/08/27 11:13:40;;;;;;;8.40;4.43;;;21.00;61.00;;;;;;5115552;28;20406;-77
2022/08/27 11:16:23;;;;;;;8.63;4.30;;;21.00;67.20;;;;;;5096538;28;20769;-73
2022/08/27 11:19:13;;;;;;;10.27;4.20;;;20.90;53.50;;;;;;5097286;28;20477;-78
2022/08/27 11:22:09;;;;;;;6.17;4.40;;;21.00;51.80;;;;;;5115446;28;20416;-73
2022/08/27 11:24:48;;;;;;;3.73;3.03;;;20.90;50.80;;;;;;5115076;28;20499;-73
2022/08/27 11:27:19;;;;;;;8.10;4.17;;;21.00;43.50;;;;;;5114326;28;20441;-73
2022/08/27 11:30:25;;;;;;;8.07;4.10;;;21.20;46.60;;;;;;5115178;28;20407;-78
2022/08/27 11:33:07;;;;;;;7.60;4.43;;;21.20;37.30;;;;;;5097078;28;20422;-73
2022/08/27 11:35:44;;;;;;;10.77;5.67;;;21.40;35.40;;;;;;5115066;28;20421;-75
2022/08/27 11:38:20;;;;;;;7.23;3.37;;;21.70;50.30;;;;;;5114504;28;20434;-73
2022/08/27 11:40:58;;;;;;;3.90;2.87;;;22.60;1.00;;;;;;5114963;28;20406;-77
2022/08/27 11:43:28;;;;;;;4.93;3.23;;;23.80;1.00;;;;;;5115001;28;20549;-73
2022/08/27 11:46:01;;;;;;;3.17;2.60;;;24.70;1.00;;;;;;5114561;28;20457;-77
2022/08/27 11:48:38;;;;;;;2.83;2.43;;;25.30;1.00;;;;;;5113134;28;20426;-73
2022/08/27 11:51:22;;;;;;;3.43;2.40;;;25.80;1.00;;;;;;5114688;28;20427;-77
2022/08/27 11:54:00;;;;;;;3.63;2.30;;;25.90;1.00;;;;;;5096296;28;20410;-74
2022/08/27 11:56:29;;;;;;;3.23;1.97;;;26.10;1.00;;;;;;5113995;28;20391;-74
2022/08/27 11:59:07;;;;;;;3.60;2.00;;;25.70;1.00;;;;;;5114365;28;20792;-75
2022/08/27 12:01:32;;;;;;;4.17;2.13;;;25.60;1.00;;;;;;5114540;28;20485;-78
2022/08/27 12:04:05;;;;;;;5.97;2.00;;;26.20;1.00;;;;;;5113892;28;20494;-78
2022/08/27 12:06:42;;;;;;;4.83;1.90;;;26.90;1.00;;;;;;5113732;28;20196;-78
2022/08/27 12:09:19;;;;;;;11.03;2.73;;;27.00;1.00;;;;;;5114303;28;20411;-77
2022/08/27 12:11:59;;;;;;;9.13;2.27;;;26.70;1.00;;;;;;5114383;28;20387;-73
2022/08/27 12:14:52;;;;;;;7.87;1.90;;;26.70;1.00;;;;;;5114293;28;20482;-78
2022/08/27 12:17:24;;;;;;;3.60;1.70;;;26.70;1.00;;;;;;5113565;28;20395;-74
2022/08/27 12:20:26;;;;;;;7.33;2.30;;;26.70;1.00;;;;;;5114180;28;20407;-78
2022/08/27 12:26:33;;;;;;;4.30;1.93;;;27.00;1.00;;;;;;5113385;28;20500;-77
2022/08/27 12:29:22;;;;;;;6.23;1.53;;;26.60;1.00;;;;;;5095742;28;20418;-78
2022/08/27 12:31:49;;;;;;;3.20;1.60;;;26.10;1.00;;;;;;5095715;28;20819;-73
2022/08/27 12:34:22;;;;;;;7.43;2.17;;;25.80;1.00;;;;;;5095615;28;20965;-73
2022/08/27 12:36:51;;;;;;;6.23;1.90;;;25.90;1.00;;;;;;5095092;28;20449;-73
2022/08/27 12:39:21;;;;;;;6.00;2.00;;;26.00;1.00;;;;;;5113738;28;20427;-73
2022/08/27 12:41:49;;;;;;;3.37;1.67;;;26.20;1.00;;;;;;5113793;28;20426;-77
2022/08/27 12:44:22;;;;;;;3.77;1.67;;;26.30;1.00;;;;;;5113235;28;20410;-77
2022/08/27 12:46:52;;;;;;;6.60;2.57;;;26.60;1.00;;;;;;5113177;28;20804;-74
2022/08/27 12:49:22;;;;;;;8.07;1.50;;;27.00;1.00;;;;;;5113598;28;20502;-75
2022/08/27 12:51:48;;;;;;;4.03;1.47;;;27.30;1.00;;;;;;5095452;28;20403;-73
2022/08/27 12:54:37;;;;;;;7.47;2.20;;;27.90;1.00;;;;;;5113747;28;20402;-75
2022/08/27 12:57:03;;;;;;;5.90;2.00;;;28.50;1.00;;;;;;5113002;28;20199;-74
2022/08/27 12:59:47;;;;;;;7.80;2.10;;;28.90;1.00;;;;;;5113295;28;20451;-74
2022/08/27 13:02:51;;;;;;;5.03;1.50;;;29.20;1.00;;;;;;5113161;28;20165;-77
2022/08/27 13:05:20;;;;;;;4.47;1.77;;;29.30;1.00;;;;;;5057618;28;20454;-77
2022/08/27 13:07:47;;;;;;;6.70;1.57;;;29.20;1.00;;;;;;5094590;28;20832;-73
2022/08/27 13:10:30;;;;;;;2.63;1.57;;;29.10;1.00;;;;;;5113524;28;20779;-74
2022/08/27 13:13:13;;;;;;;4.90;1.80;;;28.70;1.00;;;;;;5113513;28;20478;-75
2022/08/27 13:15:57;;;;;;;5.57;1.47;;;28.40;1.00;;;;;;5113309;28;20413;-73
2022/08/27 13:18:24;;;;;;;2.90;1.70;;;28.10;1.00;;;;;;5112486;28;20465;-74
2022/08/27 13:21:19;;;;;;;4.17;1.60;;;28.00;1.00;;;;;;5094969;28;20787;-73
2022/08/27 13:23:56;;;;;;;2.33;1.90;;;27.30;1.00;;;;;;5112377;28;20953;-78
2022/08/27 13:26:24;;;;;;;3.83;1.47;;;26.80;1.00;;;;;;5112597;28;20456;-78
2022/08/27 13:28:51;;;;;;;4.97;1.80;;;26.80;1.00;;;;;;5095116;28;20423;-73
2022/08/27 13:31:20;;;;;;;4.23;2.20;;;27.00;1.00;;;;;;5113324;28;20891;-78
2022/08/27 13:33:46;;;;;;;11.63;3.37;;;27.20;1.00;;;;;;5113072;28;20468;-78
2022/08/27 13:36:12;;;;;;;3.90;1.67;;;27.00;1.00;;;;;;5112036;28;20406;-73
2022/08/27 13:38:44;;;;;;;7.10;2.40;;;26.70;1.00;;;;;;5113168;28;20557;-77
2022/08/27 13:41:24;;;;;;;2.90;1.53;;;26.40;1.00;;;;;;5113169;28;20157;-77
2022/08/27 13:43:50;;;;;;;3.40;1.57;;;26.00;1.00;;;;;;5113088;28;20414;-77
2022/08/27 13:46:25;;;;;;;9.57;1.70;;;25.60;1.00;;;;;;5094078;28;20459;-77
2022/08/27 13:48:54;;;;;;;4.47;1.60;;;25.60;1.00;;;;;;5113160;28;20267;-78
2022/08/27 13:51:30;;;;;;;3.27;1.70;;;25.70;1.00;;;;;;5113282;28;20917;-77
2022/08/27 13:54:14;;;;;;;18.83;4.30;;;25.70;1.00;;;;;;5112455;28;20448;-73
2022/08/27 13:56:54;;;;;;;7.53;1.33;;;25.80;1.00;;;;;;5112499;28;20406;-73
2022/08/27 13:59:20;;;;;;;3.30;1.90;;;25.90;1.00;;;;;;5113024;28;20881;-73
2022/08/27 14:02:17;;;;;;;6.60;1.30;;;26.20;1.00;;;;;;5112969;28;20486;-74
2022/08/27 14:05:06;;;;;;;4.43;1.60;;;26.50;1.00;;;;;;5113082;28;20202;-74
2022/08/27 14:07:35;;;;;;;5.10;1.60;;;26.50;1.00;;;;;;5112308;28;20398;-77
2022/08/27 14:10:06;;;;;;;3.00;1.47;;;26.70;1.00;;;;;;5113015;28;20812;-78
2022/08/27 14:12:38;;;;;;;3.20;1.87;;;26.60;1.00;;;;;;5116166;28;20387;-77
2022/08/27 14:15:25;;;;;;;3.47;1.50;;;26.90;1.00;;;;;;5116571;28;20829;-77
2022/08/27 14:17:51;;;;;;;2.30;1.70;;;27.20;1.00;;;;;;5116424;28;20817;-74
2022/08/27 14:20:18;;;;;;;4.40;1.93;;;27.50;1.00;;;;;;5116774;28;20413;-74
2022/08/27 14:22:44;;;;;;;6.23;1.93;;;27.40;1.00;;;;;;5104398;28;20166;-74
2022/08/27 14:25:11;;;;;;;6.70;1.90;;;27.50;1.00;;;;;;5095869;28;20508;-74